sensor_id;sensor_type;location;lat;lon;timestamp;temperature;humidity
44277;DHT22;29973;43.742;1.236;2024-02-04T00:01:25;5.30;99.90
44277;DHT22;29973;43.742;1.236;2024-02-04T00:03:50;5.30;99.90
44277;DHT22;29973;43.742;1.236;2024-02-04T00:06:16;5.40;99.90
44277;DHT22;29973;43.742;1.236;2024-02-04T00:08:42;5.40;99.90
44277;DHT22;29973;43.742;1.236;2024-02-04T00:11:07;5.40;99.90
44277;DHT22;29973;43.742;1.236;2024-02-04T00:13:37;5.40;99.90
44277;DHT22;29973;43.742;1.236;2024-02-04T00:16:03;5.40;99.90
44277;DHT22;29973;43.742;1.236;2024-02-04T00:18:29;5.40;99.90
44277;DHT22;29973;43.742;1.236;2024-02-04T00:20:55;5.20;99.90
44277;DHT22;29973;43.742;1.236;2024-02-04T00:23:20;5.10;99.90
44277;DHT22;29973;43.742;1.236;2024-02-04T00:25:46;5.10;99.90
44277;DHT22;29973;43.742;1.236;2024-02-04T00:28:12;5.20;99.90
44277;DHT22;29973;43.742;1.236;2024-02-04T00:30:38;5.30;99.90
44277;DHT22;29973;43.742;1.236;2024-02-04T00:33:04;5.20;99.90
44277;DHT22;29973;43.742;1.236;2024-02-04T00:35:30;5.20;99.90
44277;DHT22;29973;43.742;1.236;2024-02-04T00:37:56;5.10;99.90
44277;DHT22;29973;43.742;1.236;2024-02-04T00:40:23;5.20;99.90
44277;DHT22;29973;43.742;1.236;2024-02-04T00:42:49;5.20;99.90
44277;DHT22;29973;43.742;1.236;2024-02-04T00:45:15;5.20;99.90
44277;DHT22;29973;43.742;1.236;2024-02-04T00:47:41;5.10;99.90
44277;DHT22;29973;43.742;1.236;2024-02-04T00:50:07;5.10;99.90
44277;DHT22;29973;43.742;1.236;2024-02-04T00:52:33;5.20;99.90
44277;DHT22;29973;43.742;1.236;2024-02-04T00:54:59;5.10;99.90
44277;DHT22;29973;43.742;1.236;2024-02-04T00:57:24;5.20;99.90
44277;DHT22;29973;43.742;1.236;2024-02-04T00:59:51;5.20;99.90
44277;DHT22;29973;43.742;1.236;2024-02-04T01:02:16;5.10;99.90
44277;DHT22;29973;43.742;1.236;2024-02-04T01:04:42;5.10;99.90
44277;DHT22;29973;43.742;1.236;2024-02-04T01:07:08;5.00;99.90
44277;DHT22;29973;43.742;1.236;2024-02-04T01:09:33;5.00;99.90
44277;DHT22;29973;43.742;1.236;2024-02-04T01:11:59;4.90;99.90
44277;DHT22;29973;43.742;1.236;2024-02-04T01:14:25;5.00;99.90
44277;DHT22;29973;43.742;1.236;2024-02-04T01:16:50;5.10;99.90
44277;DHT22;29973;43.742;1.236;2024-02-04T01:19:16;5.20;99.90
44277;DHT22;29973;43.742;1.236;2024-02-04T01:21:42;5.10;99.90
44277;DHT22;29973;43.742;1.236;2024-02-04T01:24:10;5.10;99.90
44277;DHT22;29973;43.742;1.236;2024-02-04T01:26:35;5.00;99.90
44277;DHT22;29973;43.742;1.236;2024-02-04T01:29:01;5.10;99.90
44277;DHT22;29973;43.742;1.236;2024-02-04T01:31:27;5.10;99.90
44277;DHT22;29973;43.742;1.236;2024-02-04T01:33:53;5.20;99.90
44277;DHT22;29973;43.742;1.236;2024-02-04T01:36:18;5.10;99.90
44277;DHT22;29973;43.742;1.236;2024-02-04T01:38:44;5.00;99.90
44277;DHT22;29973;43.742;1.236;2024-02-04T01:41:09;4.90;99.90
44277;DHT22;29973;43.742;1.236;2024-02-04T01:43:35;4.90;99.90
44277;DHT22;29973;43.742;1.236;2024-02-04T01:46:01;5.00;99.90
44277;DHT22;29973;43.742;1.236;2024-02-04T01:48:27;5.00;99.90
44277;DHT22;29973;43.742;1.236;2024-02-04T01:50:55;4.90;99.90
44277;DHT22;29973;43.742;1.236;2024-02-04T01:53:22;5.00;99.90
44277;DHT22;29973;43.742;1.236;2024-02-04T01:55:49;5.00;99.90
44277;DHT22;29973;43.742;1.236;2024-02-04T01:58:15;5.10;99.90
44277;DHT22;29973;43.742;1.236;2024-02-04T02:00:41;5.00;99.90
44277;DHT22;29973;43.742;1.236;2024-02-04T02:03:08;5.00;99.90
44277;DHT22;29973;43.742;1.236;2024-02-04T02:05:36;5.00;99.90
44277;DHT22;29973;43.742;1.236;2024-02-04T02:08:02;5.00;99.90
44277;DHT22;29973;43.742;1.236;2024-02-04T02:10:28;4.90;99.90
44277;DHT22;29973;43.742;1.236;2024-02-04T02:18:03;5.10;99.90
44277;DHT22;29973;43.742;1.236;2024-02-04T02:20:56;5.10;99.90
44277;DHT22;29973;43.742;1.236;2024-02-04T02:23:34;5.00;99.90
44277;DHT22;29973;43.742;1.236;2024-02-04T02:26:02;5.00;99.90
44277;DHT22;29973;43.742;1.236;2024-02-04T02:28:28;4.90;99.90
44277;DHT22;29973;43.742;1.236;2024-02-04T02:30:54;4.80;99.90
44277;DHT22;29973;43.742;1.236;2024-02-04T02:33:20;4.80;99.90
44277;DHT22;29973;43.742;1.236;2024-02-04T02:35:50;4.80;99.90
44277;DHT22;29973;43.742;1.236;2024-02-04T02:41:03;4.80;99.90
44277;DHT22;29973;43.742;1.236;2024-02-04T02:43:29;4.80;99.90
44277;DHT22;29973;43.742;1.236;2024-02-04T02:45:56;4.80;99.90
44277;DHT22;29973;43.742;1.236;2024-02-04T02:48:22;4.80;99.90
44277;DHT22;29973;43.742;1.236;2024-02-04T02:50:49;4.80;99.90
44277;DHT22;29973;43.742;1.236;2024-02-04T02:53:15;5.00;99.90
44277;DHT22;29973;43.742;1.236;2024-02-04T02:55:41;5.00;99.90
44277;DHT22;29973;43.742;1.236;2024-02-04T02:58:07;5.00;99.90
44277;DHT22;29973;43.742;1.236;2024-02-04T03:00:33;5.00;99.90
44277;DHT22;29973;43.742;1.236;2024-02-04T03:02:58;5.00;99.90
44277;DHT22;29973;43.742;1.236;2024-02-04T03:05:24;5.00;99.90
44277;DHT22;29973;43.742;1.236;2024-02-04T03:07:50;5.00;99.90
44277;DHT22;29973;43.742;1.236;2024-02-04T03:10:16;5.10;99.90
44277;DHT22;29973;43.742;1.236;2024-02-04T03:12:45;5.00;99.90
44277;DHT22;29973;43.742;1.236;2024-02-04T03:15:11;5.00;99.90
44277;DHT22;29973;43.742;1.236;2024-02-04T03:17:36;5.00;99.90
44277;DHT22;29973;43.742;1.236;2024-02-04T03:20:02;5.00;99.90
44277;DHT22;29973;43.742;1.236;2024-02-04T03:22:28;5.00;99.90
44277;DHT22;29973;43.742;1.236;2024-02-04T03:24:54;5.00;99.90
44277;DHT22;29973;43.742;1.236;2024-02-04T03:27:20;5.00;99.90
44277;DHT22;29973;43.742;1.236;2024-02-04T03:29:46;4.90;99.90
44277;DHT22;29973;43.742;1.236;2024-02-04T03:32:12;4.80;99.90
44277;DHT22;29973;43.742;1.236;2024-02-04T03:34:38;4.90;99.90
44277;DHT22;29973;43.742;1.236;2024-02-04T03:37:05;4.90;99.90
44277;DHT22;29973;43.742;1.236;2024-02-04T03:39:31;4.90;99.90
44277;DHT22;29973;43.742;1.236;2024-02-04T03:41:56;5.00;99.90
44277;DHT22;29973;43.742;1.236;2024-02-04T03:44:22;5.00;99.90
44277;DHT22;29973;43.742;1.236;2024-02-04T03:46:51;4.90;99.90
44277;DHT22;29973;43.742;1.236;2024-02-04T03:49:17;4.90;99.90
44277;DHT22;29973;43.742;1.236;2024-02-04T03:51:43;4.90;99.90
44277;DHT22;29973;43.742;1.236;2024-02-04T03:54:09;4.70;99.90
44277;DHT22;29973;43.742;1.236;2024-02-04T03:56:35;4.80;99.90
44277;DHT22;29973;43.742;1.236;2024-02-04T03:59:00;4.80;99.90
44277;DHT22;29973;43.742;1.236;2024-02-04T04:01:26;4.60;99.90
44277;DHT22;29973;43.742;1.236;2024-02-04T04:03:52;4.60;99.90
44277;DHT22;29973;43.742;1.236;2024-02-04T04:06:17;4.70;99.90
44277;DHT22;29973;43.742;1.236;2024-02-04T04:08:43;4.70;99.90
44277;DHT22;29973;43.742;1.236;2024-02-04T04:11:10;4.70;99.90
44277;DHT22;29973;43.742;1.236;2024-02-04T04:13:36;4.80;99.90
44277;DHT22;29973;43.742;1.236;2024-02-04T04:16:03;4.70;99.90
44277;DHT22;29973;43.742;1.236;2024-02-04T04:18:29;4.80;99.90
44277;DHT22;29973;43.742;1.236;2024-02-04T04:20:55;4.80;99.90
44277;DHT22;29973;43.742;1.236;2024-02-04T04:23:21;4.70;99.90
44277;DHT22;29973;43.742;1.236;2024-02-04T04:25:47;4.70;99.90
44277;DHT22;29973;43.742;1.236;2024-02-04T04:28:12;4.70;99.90
44277;DHT22;29973;43.742;1.236;2024-02-04T04:30:38;4.60;99.90
44277;DHT22;29973;43.742;1.236;2024-02-04T04:33:04;4.60;99.90
44277;DHT22;29973;43.742;1.236;2024-02-04T04:35:29;4.60;99.90
44277;DHT22;29973;43.742;1.236;2024-02-04T04:37:55;4.70;99.90
44277;DHT22;29973;43.742;1.236;2024-02-04T04:40:21;4.60;99.90
44277;DHT22;29973;43.742;1.236;2024-02-04T04:42:46;4.60;99.90
44277;DHT22;29973;43.742;1.236;2024-02-04T04:45:12;4.60;99.90
44277;DHT22;29973;43.742;1.236;2024-02-04T04:47:39;4.60;99.90
44277;DHT22;29973;43.742;1.236;2024-02-04T04:50:05;4.60;99.90
44277;DHT22;29973;43.742;1.236;2024-02-04T04:52:31;4.60;99.90
44277;DHT22;29973;43.742;1.236;2024-02-04T04:54:57;4.70;99.90
44277;DHT22;29973;43.742;1.236;2024-02-04T04:57:23;4.60;99.90
44277;DHT22;29973;43.742;1.236;2024-02-04T04:59:49;4.60;99.90
44277;DHT22;29973;43.742;1.236;2024-02-04T05:02:14;4.50;99.90
44277;DHT22;29973;43.742;1.236;2024-02-04T05:04:44;4.60;99.90
44277;DHT22;29973;43.742;1.236;2024-02-04T05:07:13;4.70;99.90
44277;DHT22;29973;43.742;1.236;2024-02-04T05:09:39;4.60;99.90
44277;DHT22;29973;43.742;1.236;2024-02-04T05:12:06;4.50;99.90
44277;DHT22;29973;43.742;1.236;2024-02-04T05:14:31;4.50;99.90
44277;DHT22;29973;43.742;1.236;2024-02-04T05:16:57;4.60;99.90
44277;DHT22;29973;43.742;1.236;2024-02-04T05:19:23;4.60;99.90
44277;DHT22;29973;43.742;1.236;2024-02-04T05:21:48;4.50;99.90
44277;DHT22;29973;43.742;1.236;2024-02-04T05:24:14;4.50;99.90
44277;DHT22;29973;43.742;1.236;2024-02-04T05:26:40;4.50;99.90
44277;DHT22;29973;43.742;1.236;2024-02-04T05:29:05;4.40;99.90
44277;DHT22;29973;43.742;1.236;2024-02-04T05:31:31;4.40;99.90
44277;DHT22;29973;43.742;1.236;2024-02-04T05:33:56;4.50;99.90
44277;DHT22;29973;43.742;1.236;2024-02-04T05:36:22;4.40;99.90
44277;DHT22;29973;43.742;1.236;2024-02-04T05:38:48;4.50;99.90
44277;DHT22;29973;43.742;1.236;2024-02-04T05:41:13;4.40;99.90
44277;DHT22;29973;43.742;1.236;2024-02-04T05:43:39;4.50;99.90
44277;DHT22;29973;43.742;1.236;2024-02-04T05:46:05;4.60;99.90
44277;DHT22;29973;43.742;1.236;2024-02-04T05:48:31;4.60;99.90
44277;DHT22;29973;43.742;1.236;2024-02-04T05:50:56;4.70;99.90
44277;DHT22;29973;43.742;1.236;2024-02-04T05:53:22;4.70;99.90
44277;DHT22;29973;43.742;1.236;2024-02-04T05:55:48;4.50;99.90
44277;DHT22;29973;43.742;1.236;2024-02-04T05:58:15;4.60;99.90
44277;DHT22;29973;43.742;1.236;2024-02-04T06:00:40;4.60;99.90
44277;DHT22;29973;43.742;1.236;2024-02-04T06:03:06;4.60;99.90
44277;DHT22;29973;43.742;1.236;2024-02-04T06:05:32;4.60;99.90
44277;DHT22;29973;43.742;1.236;2024-02-04T06:07:58;4.60;99.90
44277;DHT22;29973;43.742;1.236;2024-02-04T06:10:24;4.70;99.90
44277;DHT22;29973;43.742;1.236;2024-02-04T06:12:49;4.60;99.90
44277;DHT22;29973;43.742;1.236;2024-02-04T06:15:15;4.60;99.90
44277;DHT22;29973;43.742;1.236;2024-02-04T06:17:42;4.60;99.90
44277;DHT22;29973;43.742;1.236;2024-02-04T06:20:08;4.60;99.90
44277;DHT22;29973;43.742;1.236;2024-02-04T06:22:37;4.60;99.90
44277;DHT22;29973;43.742;1.236;2024-02-04T06:25:03;4.50;99.90
44277;DHT22;29973;43.742;1.236;2024-02-04T06:27:29;4.40;99.90
44277;DHT22;29973;43.742;1.236;2024-02-04T06:29:55;4.40;99.90
44277;DHT22;29973;43.742;1.236;2024-02-04T06:32:21;4.30;99.90
44277;DHT22;29973;43.742;1.236;2024-02-04T06:34:47;4.30;99.90
44277;DHT22;29973;43.742;1.236;2024-02-04T06:37:13;4.40;99.90
44277;DHT22;29973;43.742;1.236;2024-02-04T06:39:38;4.40;99.90
44277;DHT22;29973;43.742;1.236;2024-02-04T06:42:04;4.40;99.90
44277;DHT22;29973;43.742;1.236;2024-02-04T06:44:30;4.40;99.90
44277;DHT22;29973;43.742;1.236;2024-02-04T06:46:57;4.40;99.90
44277;DHT22;29973;43.742;1.236;2024-02-04T06:49:23;4.40;99.90
44277;DHT22;29973;43.742;1.236;2024-02-04T06:51:49;4.30;99.90
44277;DHT22;29973;43.742;1.236;2024-02-04T06:54:16;4.40;99.90
44277;DHT22;29973;43.742;1.236;2024-02-04T06:56:41;4.40;99.90
44277;DHT22;29973;43.742;1.236;2024-02-04T06:59:07;4.40;99.90
44277;DHT22;29973;43.742;1.236;2024-02-04T07:01:33;4.50;99.90
44277;DHT22;29973;43.742;1.236;2024-02-04T07:03:58;4.50;99.90
44277;DHT22;29973;43.742;1.236;2024-02-04T07:06:24;4.60;99.90
44277;DHT22;29973;43.742;1.236;2024-02-04T07:08:50;4.60;99.90
44277;DHT22;29973;43.742;1.236;2024-02-04T07:11:16;4.60;99.90
44277;DHT22;29973;43.742;1.236;2024-02-04T07:13:42;4.60;99.90
44277;DHT22;29973;43.742;1.236;2024-02-04T07:16:08;4.50;99.90
44277;DHT22;29973;43.742;1.236;2024-02-04T07:18:33;4.40;99.90
44277;DHT22;29973;43.742;1.236;2024-02-04T07:20:59;4.50;99.90
44277;DHT22;29973;43.742;1.236;2024-02-04T07:23:25;4.50;99.90
44277;DHT22;29973;43.742;1.236;2024-02-04T07:25:50;4.60;99.90
44277;DHT22;29973;43.742;1.236;2024-02-04T07:28:16;4.70;99.90
44277;DHT22;29973;43.742;1.236;2024-02-04T07:30:42;4.60;99.90
44277;DHT22;29973;43.742;1.236;2024-02-04T07:33:07;4.70;99.90
44277;DHT22;29973;43.742;1.236;2024-02-04T07:35:33;4.70;99.90
44277;DHT22;29973;43.742;1.236;2024-02-04T07:37:59;4.60;99.90
44277;DHT22;29973;43.742;1.236;2024-02-04T07:40:25;4.60;99.90
44277;DHT22;29973;43.742;1.236;2024-02-04T07:42:52;4.40;99.90
44277;DHT22;29973;43.742;1.236;2024-02-04T07:45:18;4.50;99.90
44277;DHT22;29973;43.742;1.236;2024-02-04T07:47:44;4.50;99.90
44277;DHT22;29973;43.742;1.236;2024-02-04T07:50:09;4.50;99.90
44277;DHT22;29973;43.742;1.236;2024-02-04T07:52:35;4.60;99.90
44277;DHT22;29973;43.742;1.236;2024-02-04T07:55:01;4.70;99.90
44277;DHT22;29973;43.742;1.236;2024-02-04T07:57:26;4.60;99.90
44277;DHT22;29973;43.742;1.236;2024-02-04T07:59:52;4.70;99.90
44277;DHT22;29973;43.742;1.236;2024-02-04T08:02:18;4.80;99.90
44277;DHT22;29973;43.742;1.236;2024-02-04T08:04:44;4.80;99.90
44277;DHT22;29973;43.742;1.236;2024-02-04T08:07:09;4.90;99.90
44277;DHT22;29973;43.742;1.236;2024-02-04T08:09:35;5.20;99.90
44277;DHT22;29973;43.742;1.236;2024-02-04T08:12:01;5.00;99.90
44277;DHT22;29973;43.742;1.236;2024-02-04T08:14:26;5.00;99.90
44277;DHT22;29973;43.742;1.236;2024-02-04T08:16:52;5.00;99.90
44277;DHT22;29973;43.742;1.236;2024-02-04T08:19:18;5.00;99.90
44277;DHT22;29973;43.742;1.236;2024-02-04T08:21:44;5.00;99.90
44277;DHT22;29973;43.742;1.236;2024-02-04T08:24:10;4.80;99.90
44277;DHT22;29973;43.742;1.236;2024-02-04T08:26:35;4.70;99.90
44277;DHT22;29973;43.742;1.236;2024-02-04T08:29:01;4.60;99.90
44277;DHT22;29973;43.742;1.236;2024-02-04T08:31:27;4.60;99.90
44277;DHT22;29973;43.742;1.236;2024-02-04T08:33:52;4.70;99.90
44277;DHT22;29973;43.742;1.236;2024-02-04T08:36:18;4.70;99.90
44277;DHT22;29973;43.742;1.236;2024-02-04T08:38:44;4.80;99.90
44277;DHT22;29973;43.742;1.236;2024-02-04T08:41:10;4.80;99.90
44277;DHT22;29973;43.742;1.236;2024-02-04T08:43:36;4.90;99.90
44277;DHT22;29973;43.742;1.236;2024-02-04T08:46:01;4.90;99.90
44277;DHT22;29973;43.742;1.236;2024-02-04T08:48:28;4.80;99.90
44277;DHT22;29973;43.742;1.236;2024-02-04T08:50:53;4.90;99.90
44277;DHT22;29973;43.742;1.236;2024-02-04T08:53:22;4.80;99.90
44277;DHT22;29973;43.742;1.236;2024-02-04T08:55:49;4.70;99.90
44277;DHT22;29973;43.742;1.236;2024-02-04T08:58:15;4.80;99.90
44277;DHT22;29973;43.742;1.236;2024-02-04T09:00:40;4.80;99.90
44277;DHT22;29973;43.742;1.236;2024-02-04T09:03:06;4.90;99.90
44277;DHT22;29973;43.742;1.236;2024-02-04T09:05:32;5.00;99.90
44277;DHT22;29973;43.742;1.236;2024-02-04T09:07:58;5.00;99.90
44277;DHT22;29973;43.742;1.236;2024-02-04T09:10:24;5.20;99.90
44277;DHT22;29973;43.742;1.236;2024-02-04T09:12:49;5.10;99.90
44277;DHT22;29973;43.742;1.236;2024-02-04T09:15:15;5.00;99.90
44277;DHT22;29973;43.742;1.236;2024-02-04T09:17:41;5.00;99.90
44277;DHT22;29973;43.742;1.236;2024-02-04T09:20:07;5.00;99.90
44277;DHT22;29973;43.742;1.236;2024-02-04T09:22:33;5.00;99.90
44277;DHT22;29973;43.742;1.236;2024-02-04T09:24:59;5.30;99.90
44277;DHT22;29973;43.742;1.236;2024-02-04T09:27:25;5.60;99.90
44277;DHT22;29973;43.742;1.236;2024-02-04T09:29:51;5.60;99.90
44277;DHT22;29973;43.742;1.236;2024-02-04T09:32:17;5.70;99.90
44277;DHT22;29973;43.742;1.236;2024-02-04T09:34:43;5.60;99.90
44277;DHT22;29973;43.742;1.236;2024-02-04T09:37:09;5.80;99.90
44277;DHT22;29973;43.742;1.236;2024-02-04T09:39:35;5.80;99.90
44277;DHT22;29973;43.742;1.236;2024-02-04T09:42:01;5.90;99.90
44277;DHT22;29973;43.742;1.236;2024-02-04T09:44:27;6.00;99.90
44277;DHT22;29973;43.742;1.236;2024-02-04T09:46:54;6.00;99.90
44277;DHT22;29973;43.742;1.236;2024-02-04T09:49:22;5.70;99.90
44277;DHT22;29973;43.742;1.236;2024-02-04T09:51:48;5.70;99.90
44277;DHT22;29973;43.742;1.236;2024-02-04T09:54:15;5.80;99.90
44277;DHT22;29973;43.742;1.236;2024-02-04T09:56:42;5.70;99.90
44277;DHT22;29973;43.742;1.236;2024-02-04T09:59:07;5.80;99.90
44277;DHT22;29973;43.742;1.236;2024-02-04T10:01:35;5.90;99.90
44277;DHT22;29973;43.742;1.236;2024-02-04T10:04:01;6.20;99.90
44277;DHT22;29973;43.742;1.236;2024-02-04T10:06:27;5.80;99.90
44277;DHT22;29973;43.742;1.236;2024-02-04T10:08:53;5.70;99.90
44277;DHT22;29973;43.742;1.236;2024-02-04T10:11:19;5.60;99.90
44277;DHT22;29973;43.742;1.236;2024-02-04T10:13:48;5.50;99.90
44277;DHT22;29973;43.742;1.236;2024-02-04T10:16:14;5.90;99.90
44277;DHT22;29973;43.742;1.236;2024-02-04T10:18:47;5.80;99.90
44277;DHT22;29973;43.742;1.236;2024-02-04T10:21:20;6.20;99.90
44277;DHT22;29973;43.742;1.236;2024-02-04T10:23:50;6.20;99.90
44277;DHT22;29973;43.742;1.236;2024-02-04T10:26:17;6.10;99.90
44277;DHT22;29973;43.742;1.236;2024-02-04T10:28:44;6.30;99.90
44277;DHT22;29973;43.742;1.236;2024-02-04T10:31:12;6.30;99.90
44277;DHT22;29973;43.742;1.236;2024-02-04T10:33:38;6.20;99.90
44277;DHT22;29973;43.742;1.236;2024-02-04T10:36:04;6.50;99.90
44277;DHT22;29973;43.742;1.236;2024-02-04T10:38:31;6.60;99.90
44277;DHT22;29973;43.742;1.236;2024-02-04T10:40:59;6.60;99.90
44277;DHT22;29973;43.742;1.236;2024-02-04T10:43:31;6.30;99.90
44277;DHT22;29973;43.742;1.236;2024-02-04T10:46:10;6.20;99.90
44277;DHT22;29973;43.742;1.236;2024-02-04T10:48:37;6.60;99.90
44277;DHT22;29973;43.742;1.236;2024-02-04T10:51:14;6.70;99.90
44277;DHT22;29973;43.742;1.236;2024-02-04T10:53:45;6.50;99.90
44277;DHT22;29973;43.742;1.236;2024-02-04T10:56:19;6.70;99.90
44277;DHT22;29973;43.742;1.236;2024-02-04T10:58:47;7.10;99.90
44277;DHT22;29973;43.742;1.236;2024-02-04T11:01:13;7.20;99.90
44277;DHT22;29973;43.742;1.236;2024-02-04T11:03:39;7.10;99.90
44277;DHT22;29973;43.742;1.236;2024-02-04T11:06:07;7.30;99.90
44277;DHT22;29973;43.742;1.236;2024-02-04T11:08:34;7.20;99.90
44277;DHT22;29973;43.742;1.236;2024-02-04T11:11:00;6.90;99.90
44277;DHT22;29973;43.742;1.236;2024-02-04T11:13:27;6.90;99.90
44277;DHT22;29973;43.742;1.236;2024-02-04T11:15:56;6.90;99.90
44277;DHT22;29973;43.742;1.236;2024-02-04T11:26:33;6.80;99.90
44277;DHT22;29973;43.742;1.236;2024-02-04T11:29:00;7.00;99.90
44277;DHT22;29973;43.742;1.236;2024-02-04T11:31:28;7.10;99.90
44277;DHT22;29973;43.742;1.236;2024-02-04T11:33:56;6.90;99.90
44277;DHT22;29973;43.742;1.236;2024-02-04T11:36:24;6.80;99.90
44277;DHT22;29973;43.742;1.236;2024-02-04T11:38:51;7.20;99.90
44277;DHT22;29973;43.742;1.236;2024-02-04T11:41:24;7.00;99.90
44277;DHT22;29973;43.742;1.236;2024-02-04T11:43:56;7.30;99.90
44277;DHT22;29973;43.742;1.236;2024-02-04T11:46:21;7.10;99.90
44277;DHT22;29973;43.742;1.236;2024-02-04T11:48:54;6.80;99.90
44277;DHT22;29973;43.742;1.236;2024-02-04T11:51:22;7.00;99.90
44277;DHT22;29973;43.742;1.236;2024-02-04T11:53:50;7.20;99.90
44277;DHT22;29973;43.742;1.236;2024-02-04T11:56:18;6.80;99.90
44277;DHT22;29973;43.742;1.236;2024-02-04T11:58:44;6.60;99.90
44277;DHT22;29973;43.742;1.236;2024-02-04T12:01:10;6.70;99.90
44277;DHT22;29973;43.742;1.236;2024-02-04T12:03:36;6.80;99.90
44277;DHT22;29973;43.742;1.236;2024-02-04T12:06:03;6.90;99.90
44277;DHT22;29973;43.742;1.236;2024-02-04T12:08:32;6.90;99.90
44277;DHT22;29973;43.742;1.236;2024-02-04T12:10:58;6.90;99.90
44277;DHT22;29973;43.742;1.236;2024-02-04T12:13:24;6.90;99.90
44277;DHT22;29973;43.742;1.236;2024-02-04T12:15:50;7.00;99.90
44277;DHT22;29973;43.742;1.236;2024-02-04T12:18:16;7.10;99.90
44277;DHT22;29973;43.742;1.236;2024-02-04T12:20:49;7.10;99.90
44277;DHT22;29973;43.742;1.236;2024-02-04T12:23:18;7.10;99.90
44277;DHT22;29973;43.742;1.236;2024-02-04T12:25:44;7.50;99.90
44277;DHT22;29973;43.742;1.236;2024-02-04T12:28:10;7.90;99.90
44277;DHT22;29973;43.742;1.236;2024-02-04T12:30:38;7.60;99.90
44277;DHT22;29973;43.742;1.236;2024-02-04T12:33:07;7.90;99.90
44277;DHT22;29973;43.742;1.236;2024-02-04T12:35:34;8.20;99.90
44277;DHT22;29973;43.742;1.236;2024-02-04T12:38:00;8.30;99.90
44277;DHT22;29973;43.742;1.236;2024-02-04T12:40:30;8.30;99.90
44277;DHT22;29973;43.742;1.236;2024-02-04T12:42:59;8.20;99.90
44277;DHT22;29973;43.742;1.236;2024-02-04T12:45:27;8.10;99.90
44277;DHT22;29973;43.742;1.236;2024-02-04T12:47:54;7.80;99.90
44277;DHT22;29973;43.742;1.236;2024-02-04T12:50:20;8.00;99.90
44277;DHT22;29973;43.742;1.236;2024-02-04T12:55:28;8.40;99.90
44277;DHT22;29973;43.742;1.236;2024-02-04T12:58:06;8.40;99.90
44277;DHT22;29973;43.742;1.236;2024-02-04T13:00:36;8.30;99.90
44277;DHT22;29973;43.742;1.236;2024-02-04T13:03:03;8.00;99.90
44277;DHT22;29973;43.742;1.236;2024-02-04T13:05:29;8.20;99.90
44277;DHT22;29973;43.742;1.236;2024-02-04T13:07:57;8.00;99.90
44277;DHT22;29973;43.742;1.236;2024-02-04T13:10:27;8.10;99.90
44277;DHT22;29973;43.742;1.236;2024-02-04T13:13:08;7.80;99.90
44277;DHT22;29973;43.742;1.236;2024-02-04T13:15:39;7.90;99.90
44277;DHT22;29973;43.742;1.236;2024-02-04T13:18:05;8.00;99.90
44277;DHT22;29973;43.742;1.236;2024-02-04T13:20:31;8.00;99.90
44277;DHT22;29973;43.742;1.236;2024-02-04T13:22:57;8.10;99.90
44277;DHT22;29973;43.742;1.236;2024-02-04T13:25:25;7.90;99.90
44277;DHT22;29973;43.742;1.236;2024-02-04T13:27:51;7.80;99.90
44277;DHT22;29973;43.742;1.236;2024-02-04T13:30:17;7.60;99.90
44277;DHT22;29973;43.742;1.236;2024-02-04T13:32:44;7.70;99.90
44277;DHT22;29973;43.742;1.236;2024-02-04T13:35:11;7.60;99.90
44277;DHT22;29973;43.742;1.236;2024-02-04T13:37:40;7.60;99.90
44277;DHT22;29973;43.742;1.236;2024-02-04T13:40:07;7.70;99.90
44277;DHT22;29973;43.742;1.236;2024-02-04T13:42:34;7.80;99.90
44277;DHT22;29973;43.742;1.236;2024-02-04T13:45:01;8.10;99.90
44277;DHT22;29973;43.742;1.236;2024-02-04T13:47:28;8.10;99.90
44277;DHT22;29973;43.742;1.236;2024-02-04T13:49:54;8.10;99.90
44277;DHT22;29973;43.742;1.236;2024-02-04T13:52:21;8.10;99.90
44277;DHT22;29973;43.742;1.236;2024-02-04T13:54:47;8.10;99.90
44277;DHT22;29973;43.742;1.236;2024-02-04T13:57:13;8.00;99.90
44277;DHT22;29973;43.742;1.236;2024-02-04T13:59:38;8.00;99.90
44277;DHT22;29973;43.742;1.236;2024-02-04T14:02:04;7.80;99.90
44277;DHT22;29973;43.742;1.236;2024-02-04T14:04:30;7.50;99.90
44277;DHT22;29973;43.742;1.236;2024-02-04T14:06:57;7.60;99.90
44277;DHT22;29973;43.742;1.236;2024-02-04T14:09:23;7.60;99.90
44277;DHT22;29973;43.742;1.236;2024-02-04T14:11:48;7.50;99.90
44277;DHT22;29973;43.742;1.236;2024-02-04T14:14:14;7.30;99.90
44277;DHT22;29973;43.742;1.236;2024-02-04T14:16:40;7.40;99.90
44277;DHT22;29973;43.742;1.236;2024-02-04T14:19:06;7.10;99.90
44277;DHT22;29973;43.742;1.236;2024-02-04T14:21:32;7.10;99.90
44277;DHT22;29973;43.742;1.236;2024-02-04T14:23:57;6.90;99.90
44277;DHT22;29973;43.742;1.236;2024-02-04T14:26:23;7.20;99.90
44277;DHT22;29973;43.742;1.236;2024-02-04T14:28:49;7.50;99.90
44277;DHT22;29973;43.742;1.236;2024-02-04T14:31:15;7.50;99.90
44277;DHT22;29973;43.742;1.236;2024-02-04T14:33:41;7.60;99.90
44277;DHT22;29973;43.742;1.236;2024-02-04T14:36:07;7.60;99.90
44277;DHT22;29973;43.742;1.236;2024-02-04T14:38:33;7.40;99.90
44277;DHT22;29973;43.742;1.236;2024-02-04T14:40:59;7.00;99.90
44277;DHT22;29973;43.742;1.236;2024-02-04T14:43:25;7.20;99.90
44277;DHT22;29973;43.742;1.236;2024-02-04T14:45:51;7.30;99.90
44277;DHT22;29973;43.742;1.236;2024-02-04T14:48:17;7.40;99.90
44277;DHT22;29973;43.742;1.236;2024-02-04T14:50:43;7.40;99.90
44277;DHT22;29973;43.742;1.236;2024-02-04T14:53:09;7.30;99.90
44277;DHT22;29973;43.742;1.236;2024-02-04T14:55:35;7.10;99.90
44277;DHT22;29973;43.742;1.236;2024-02-04T14:58:00;7.30;99.90
44277;DHT22;29973;43.742;1.236;2024-02-04T15:00:26;7.30;99.90
44277;DHT22;29973;43.742;1.236;2024-02-04T15:02:56;7.30;99.90
44277;DHT22;29973;43.742;1.236;2024-02-04T15:05:22;7.20;99.90
44277;DHT22;29973;43.742;1.236;2024-02-04T15:07:48;7.30;99.90
44277;DHT22;29973;43.742;1.236;2024-02-04T15:10:14;7.40;99.90
44277;DHT22;29973;43.742;1.236;2024-02-04T15:12:40;7.50;99.90
44277;DHT22;29973;43.742;1.236;2024-02-04T15:15:06;7.50;99.90
44277;DHT22;29973;43.742;1.236;2024-02-04T15:17:33;7.40;99.90
44277;DHT22;29973;43.742;1.236;2024-02-04T15:19:59;7.50;99.90
44277;DHT22;29973;43.742;1.236;2024-02-04T15:22:25;7.40;99.90
44277;DHT22;29973;43.742;1.236;2024-02-04T15:24:51;7.30;99.90
44277;DHT22;29973;43.742;1.236;2024-02-04T15:27:18;7.10;99.90
44277;DHT22;29973;43.742;1.236;2024-02-04T15:29:47;7.10;99.90
44277;DHT22;29973;43.742;1.236;2024-02-04T15:32:14;7.00;99.90
44277;DHT22;29973;43.742;1.236;2024-02-04T15:34:41;6.90;99.90
44277;DHT22;29973;43.742;1.236;2024-02-04T15:37:07;6.90;99.90
44277;DHT22;29973;43.742;1.236;2024-02-04T15:39:34;6.70;99.90
44277;DHT22;29973;43.742;1.236;2024-02-04T15:42:03;6.70;99.90
44277;DHT22;29973;43.742;1.236;2024-02-04T15:44:30;6.60;99.90
44277;DHT22;29973;43.742;1.236;2024-02-04T15:46:56;6.80;99.90
44277;DHT22;29973;43.742;1.236;2024-02-04T15:49:24;6.70;99.90
44277;DHT22;29973;43.742;1.236;2024-02-04T15:51:52;6.70;99.90
44277;DHT22;29973;43.742;1.236;2024-02-04T15:54:18;6.60;99.90
44277;DHT22;29973;43.742;1.236;2024-02-04T15:56:51;6.70;99.90
44277;DHT22;29973;43.742;1.236;2024-02-04T15:59:18;6.60;99.90